createdAt,value
2022-08-22T00:01:48.442Z,92.70
2022-08-22T00:04:44.599Z,92.70
2022-08-22T00:07:47.188Z,92.70
2022-08-22T00:10:48.730Z,92.70
2022-08-22T00:13:43.967Z,92.80
2022-08-22T00:16:39.941Z,92.70
2022-08-22T00:19:34.891Z,92.70
2022-08-22T00:22:27.383Z,92.70
2022-08-22T00:25:36.164Z,92.80
2022-08-22T00:28:28.904Z,92.70
2022-08-22T00:31:27.115Z,92.70
2022-08-22T00:34:22.749Z,92.70
2022-08-22T00:37:19.306Z,92.80
2022-08-22T00:40:23.161Z,92.80
2022-08-22T00:43:35.205Z,92.70
2022-08-22T00:46:47.284Z,92.80
2022-08-22T00:49:58.451Z,92.90
2022-08-22T00:52:55.071Z,92.90
2022-08-22T00:55:52.752Z,93.10
2022-08-22T00:58:56.245Z,93.10
2022-08-22T01:01:55.568Z,93.10
2022-08-22T01:04:53.363Z,93.10
2022-08-22T01:08:01.305Z,93.20
2022-08-22T01:11:01.977Z,93.20
2022-08-22T01:14:04.014Z,93.20
2022-08-22T01:17:09.944Z,93.20
2022-08-22T01:20:20.425Z,93.20
2022-08-22T01:23:41.974Z,93.20
2022-08-22T01:26:41.753Z,93.10
2022-08-22T01:30:03.316Z,93.10
2022-08-22T01:33:00.582Z,93.20
2022-08-22T01:36:17.198Z,93.30
2022-08-22T01:39:09.873Z,93.30
2022-08-22T01:42:28.535Z,93.30
2022-08-22T01:45:42.241Z,93.40
2022-08-22T01:48:39.474Z,93.50
2022-08-22T01:51:33.324Z,93.50
2022-08-22T01:54:35.955Z,93.60
2022-08-22T01:57:26.488Z,93.60
2022-08-22T02:00:20.005Z,93.50
2022-08-22T02:03:29.477Z,93.90
2022-08-22T02:06:22.936Z,93.60
2022-08-22T02:09:16.027Z,93.60
2022-08-22T02:12:25.524Z,93.60
2022-08-22T02:15:23.398Z,93.60
2022-08-22T02:18:19.009Z,93.60
2022-08-22T02:21:16.932Z,93.60
2022-08-22T02:24:15.592Z,93.60
2022-08-22T02:27:11.559Z,93.60
2022-08-22T02:30:04.409Z,93.60
2022-08-22T02:33:01.301Z,93.70
2022-08-22T02:35:56.033Z,93.70
2022-08-22T02:38:55.873Z,93.70
2022-08-22T02:41:54.103Z,93.80
2022-08-22T02:44:49.132Z,93.80
2022-08-22T02:47:43.435Z,93.80
2022-08-22T02:50:44.919Z,93.90
2022-08-22T02:53:40.604Z,93.90
2022-08-22T02:56:34.736Z,93.90
2022-08-22T02:59:33.450Z,94.00
2022-08-22T03:02:33.683Z,94.00
2022-08-22T03:05:26.882Z,93.90
2022-08-22T03:08:20.092Z,94.00
2022-08-22T03:11:18.996Z,93.80
2022-08-22T03:14:13.131Z,94.60
2022-08-22T03:17:07.021Z,94.30
2022-08-22T03:20:00.304Z,94.20
2022-08-22T03:22:53.613Z,94.10
2022-08-22T03:25:48.244Z,94.00
2022-08-22T03:28:58.923Z,94.10
2022-08-22T03:32:08.826Z,94.10
2022-08-22T03:34:58.316Z,94.10
2022-08-22T03:37:46.180Z,94.30
2022-08-22T03:40:47.649Z,94.40
2022-08-22T03:43:58.478Z,94.40
2022-08-22T03:47:12.024Z,94.20
2022-08-22T03:50:29.764Z,94.30
2022-08-22T03:53:41.290Z,94.40
2022-08-22T03:56:58.947Z,94.40
2022-08-22T03:59:50.094Z,94.30
2022-08-22T04:02:49.784Z,94.40
2022-08-22T04:05:56.212Z,94.40
2022-08-22T04:09:04.265Z,94.40
2022-08-22T04:12:15.740Z,94.40
2022-08-22T04:15:30.200Z,94.50
2022-08-22T04:18:33.395Z,94.50
2022-08-22T04:21:28.666Z,94.60
2022-08-22T04:24:39.997Z,94.60
2022-08-22T04:27:26.536Z,94.70
2022-08-22T04:30:23.387Z,94.60
2022-08-22T04:33:15.259Z,94.70
2022-08-22T04:36:06.417Z,94.80
2022-08-22T04:39:01.530Z,94.80
2022-08-22T04:41:53.220Z,94.80
2022-08-22T04:44:45.047Z,94.80
2022-08-22T04:47:36.447Z,94.80
2022-08-22T04:50:27.438Z,94.90
2022-08-22T04:53:40.642Z,94.90
2022-08-22T04:56:40.570Z,94.90
2022-08-22T04:59:30.314Z,95.00
2022-08-22T05:02:24.472Z,95.10
2022-08-22T05:05:16.884Z,95.10
2022-08-22T05:08:11.677Z,95.20
2022-08-22T05:11:00.725Z,95.30
2022-08-22T05:13:53.655Z,95.50
2022-08-22T05:16:43.628Z,95.60
2022-08-22T05:19:35.316Z,95.60
2022-08-22T05:22:28.945Z,95.70
2022-08-22T05:25:21.058Z,95.80
2022-08-22T05:28:12.852Z,95.90
2022-08-22T05:31:04.499Z,95.90
2022-08-22T05:33:55.066Z,96.10
2022-08-22T05:36:48.517Z,96.10
2022-08-22T05:39:39.804Z,96.20
2022-08-22T05:42:30.933Z,96.20
2022-08-22T05:45:20.651Z,96.40
2022-08-22T05:48:16.953Z,96.30
2022-08-22T05:51:15.875Z,96.30
2022-08-22T05:54:13.221Z,96.30
2022-08-22T05:57:10.443Z,96.30
2022-08-22T06:00:05.587Z,96.30
2022-08-22T06:03:10.586Z,96.30
2022-08-22T06:06:04.019Z,96.20
2022-08-22T06:08:59.242Z,96.10
2022-08-22T06:11:53.328Z,95.90
2022-08-22T06:14:46.988Z,96.00
2022-08-22T06:17:40.865Z,95.70
2022-08-22T06:20:34.220Z,95.60
2022-08-22T06:23:25.912Z,95.40
2022-08-22T06:26:20.836Z,95.30
2022-08-22T06:29:11.112Z,95.30
2022-08-22T06:31:59.979Z,95.00
2022-08-22T06:34:48.422Z,95.00
2022-08-22T06:37:41.443Z,94.70
2022-08-22T06:40:32.092Z,94.50
2022-08-22T06:43:20.305Z,94.30
2022-08-22T06:46:08.566Z,94.10
2022-08-22T06:48:57.363Z,93.90
2022-08-22T06:51:49.440Z,93.80
2022-08-22T06:54:40.931Z,93.60
2022-08-22T06:57:33.805Z,93.10
2022-08-22T07:00:21.569Z,93.10
2022-08-22T07:03:14.557Z,92.60
2022-08-22T07:06:03.268Z,92.50
2022-08-22T07:08:55.865Z,92.40
2022-08-22T07:11:44.017Z,91.70
2022-08-22T07:14:39.737Z,91.60
2022-08-22T07:17:29.961Z,91.10
2022-08-22T07:20:24.684Z,91.00
2022-08-22T07:23:14.199Z,90.80
2022-08-22T07:26:15.943Z,90.90
2022-08-22T07:29:11.592Z,90.70
2022-08-22T07:32:11.833Z,90.30
2022-08-22T07:35:09.504Z,89.60
2022-08-22T07:38:04.766Z,88.40
2022-08-22T07:40:58.945Z,87.30
2022-08-22T07:43:51.392Z,86.10
2022-08-22T07:46:43.299Z,85.40
2022-08-22T07:49:36.898Z,84.70
2022-08-22T07:52:25.707Z,84.50
2022-08-22T07:55:18.953Z,83.90
2022-08-22T07:58:10.650Z,82.80
2022-08-22T08:00:59.992Z,83.00
2022-08-22T08:03:53.425Z,81.60
2022-08-22T08:06:42.837Z,80.50
2022-08-22T08:09:33.201Z,80.70
2022-08-22T08:12:34.836Z,79.40
2022-08-22T08:15:24.596Z,77.20
2022-08-22T08:18:19.241Z,76.10
2022-08-22T08:21:09.434Z,75.30
2022-08-22T08:23:59.230Z,73.30
2022-08-22T08:27:07.138Z,72.60
2022-08-22T08:29:59.097Z,72.70
2022-08-22T08:32:57.486Z,71.50
2022-08-22T08:36:10.328Z,71.50
2022-08-22T08:39:10.499Z,70.50
2022-08-22T08:42:13.416Z,69.00
2022-08-22T08:45:10.784Z,69.30
2022-08-22T08:48:16.307Z,67.10
2022-08-22T08:51:18.475Z,65.80
2022-08-22T08:54:28.293Z,65.50
2022-08-22T08:57:29.586Z,64.70
2022-08-22T09:00:23.027Z,61.20
2022-08-22T09:03:30.893Z,60.30
2022-08-22T09:06:42.543Z,59.10
2022-08-22T09:09:52.514Z,59.30
2022-08-22T09:13:11.489Z,58.80
2022-08-22T09:16:16.632Z,57.30
2022-08-22T09:19:35.814Z,56.60
2022-08-22T09:22:33.370Z,56.30
2022-08-22T09:25:38.593Z,55.30
2022-08-22T09:28:36.292Z,54.70
2022-08-22T09:31:51.967Z,53.10
2022-08-22T09:34:57.889Z,50.90
2022-08-22T09:38:04.434Z,50.50
2022-08-22T09:41:02.219Z,49.90
2022-08-22T09:43:58.718Z,50.00
2022-08-22T09:46:57.350Z,48.30
2022-08-22T09:49:53.657Z,48.60
2022-08-22T09:52:55.896Z,48.40
2022-08-22T09:55:50.150Z,48.00
2022-08-22T09:58:47.547Z,46.80
2022-08-22T10:01:42.382Z,45.90
2022-08-22T10:04:46.771Z,46.00
2022-08-22T10:07:38.224Z,45.60
2022-08-22T10:10:40.792Z,46.80
2022-08-22T10:13:44.776Z,45.40
2022-08-22T10:17:01.576Z,46.10
2022-08-22T10:19:51.821Z,45.70
2022-08-22T10:22:47.441Z,45.40
2022-08-22T10:25:41.724Z,45.40
2022-08-22T10:28:41.447Z,44.30
2022-08-22T10:31:51.075Z,43.80
2022-08-22T10:34:54.862Z,43.40
2022-08-22T10:37:54.831Z,44.00
2022-08-22T10:41:00.561Z,45.70
2022-08-22T10:43:59.061Z,44.20
2022-08-22T10:46:55.374Z,43.60
2022-08-22T10:49:51.503Z,46.60
2022-08-22T10:52:46.766Z,44.90
2022-08-22T10:55:35.395Z,44.70
2022-08-22T10:58:28.038Z,45.90
2022-08-22T11:01:37.553Z,45.40
2022-08-22T11:04:42.543Z,45.50
2022-08-22T11:07:48.585Z,44.80
2022-08-22T11:10:56.370Z,44.80
2022-08-22T11:13:55.870Z,44.00
2022-08-22T11:16:57.637Z,45.00
2022-08-22T11:19:58.118Z,43.90
2022-08-22T11:23:12.305Z,45.00
2022-08-22T11:26:09.555Z,43.80
2022-08-22T11:29:14.555Z,43.70
2022-08-22T11:32:13.229Z,43.50
2022-08-22T11:35:09.481Z,44.70
2022-08-22T11:38:03.870Z,43.70
2022-08-22T11:41:01.198Z,45.30
2022-08-22T11:43:53.411Z,44.80
2022-08-22T11:46:45.420Z,43.80
2022-08-22T11:49:45.363Z,43.90
2022-08-22T11:52:52.688Z,43.80
2022-08-22T11:55:50.568Z,45.40
2022-08-22T11:58:47.765Z,44.90
2022-08-22T12:01:43.941Z,44.70
2022-08-22T12:04:37.205Z,43.40
2022-08-22T12:07:32.619Z,43.90
2022-08-22T12:10:23.078Z,43.60
2022-08-22T12:13:17.847Z,43.60
2022-08-22T12:16:13.190Z,43.10
2022-08-22T12:19:09.429Z,43.70
2022-08-22T12:22:36.249Z,43.80
2022-08-22T12:25:44.574Z,42.80
2022-08-22T12:28:39.922Z,42.30
2022-08-22T12:31:36.881Z,42.20
2022-08-22T12:34:35.322Z,43.00
2022-08-22T12:37:30.702Z,42.50
2022-08-22T12:40:36.353Z,42.80
2022-08-22T12:43:43.824Z,41.40
2022-08-22T12:46:46.678Z,42.50
2022-08-22T12:49:54.038Z,43.60
2022-08-22T12:53:00.700Z,42.30
2022-08-22T12:56:02.973Z,41.80
2022-08-22T12:59:17.728Z,40.60
2022-08-22T13:02:18.291Z,41.60
2022-08-22T13:05:19.798Z,41.90
2022-08-22T13:08:11.234Z,39.60
2022-08-22T13:11:02.784Z,40.80
2022-08-22T13:13:57.148Z,42.30
2022-08-22T13:16:51.015Z,40.40
2022-08-22T13:19:57.474Z,40.80
2022-08-22T13:22:45.893Z,41.70
2022-08-22T13:25:57.771Z,42.20
2022-08-22T13:29:04.175Z,40.80
2022-08-22T13:32:02.316Z,40.60
2022-08-22T13:34:54.338Z,41.70
2022-08-22T13:37:45.080Z,41.90
2022-08-22T13:40:39.468Z,42.80
2022-08-22T13:43:30.492Z,41.30
2022-08-22T13:46:28.229Z,41.60
2022-08-22T13:49:45.181Z,42.70
2022-08-22T13:52:38.073Z,41.50
2022-08-22T13:55:31.425Z,41.90
2022-08-22T13:58:32.963Z,42.00
2022-08-22T14:01:32.917Z,41.00
2022-08-22T14:04:31.650Z,40.50
2022-08-22T14:07:37.665Z,42.20
2022-08-22T14:10:29.688Z,42.40
2022-08-22T14:13:34.226Z,42.80
2022-08-22T14:16:29.333Z,42.80
2022-08-22T14:19:27.227Z,43.20
2022-08-22T14:22:17.369Z,44.90
2022-08-22T14:25:10.165Z,45.70
2022-08-22T14:28:06.129Z,45.50
2022-08-22T14:31:01.028Z,45.30
2022-08-22T14:33:56.270Z,44.40
2022-08-22T14:36:49.051Z,45.20
2022-08-22T14:39:42.943Z,44.60
2022-08-22T14:42:44.440Z,44.30
2022-08-22T14:45:36.077Z,44.70
2022-08-22T14:48:32.586Z,44.70
2022-08-22T14:51:25.437Z,45.00
2022-08-22T14:54:21.286Z,44.60
2022-08-22T14:57:19.962Z,43.90
2022-08-22T15:00:12.235Z,45.40
2022-08-22T15:03:17.499Z,44.10
2022-08-22T15:06:09.922Z,44.60
2022-08-22T15:09:01.157Z,44.70
2022-08-22T15:11:55.862Z,45.00
2022-08-22T15:14:52.318Z,44.70
2022-08-22T15:17:54.559Z,45.90
2022-08-22T15:20:49.146Z,44.90
2022-08-22T15:23:47.003Z,45.30
2022-08-22T15:26:40.705Z,45.10
2022-08-22T15:29:32.226Z,45.30
2022-08-22T15:32:23.427Z,46.60
2022-08-22T15:35:18.234Z,46.10
2022-08-22T15:38:08.227Z,46.50
2022-08-22T15:41:31.568Z,45.90
2022-08-22T15:44:33.569Z,45.80
2022-08-22T15:47:32.818Z,46.10
2022-08-22T15:50:33.663Z,46.00
2022-08-22T15:53:24.227Z,46.80
2022-08-22T15:56:27.277Z,47.40
2022-08-22T15:59:44.768Z,48.80
2022-08-22T16:02:40.053Z,48.60
2022-08-22T16:05:28.646Z,49.20
2022-08-22T16:08:19.417Z,49.20
2022-08-22T16:11:30.841Z,49.10
2022-08-22T16:14:24.398Z,49.60
2022-08-22T16:17:43.813Z,50.40
2022-08-22T16:20:50.969Z,51.00
2022-08-22T16:24:07.709Z,51.10
2022-08-22T16:26:54.220Z,51.00
2022-08-22T16:29:43.433Z,51.30
2022-08-22T16:32:32.422Z,51.20
2022-08-22T16:35:49.185Z,51.20
2022-08-22T16:38:36.792Z,51.00
2022-08-22T16:41:32.582Z,51.30
2022-08-22T16:44:33.813Z,51.00
2022-08-22T16:47:23.782Z,50.60
2022-08-22T16:50:33.724Z,50.70
2022-08-22T16:53:50.324Z,50.70
2022-08-22T16:56:37.086Z,50.30
2022-08-22T16:59:38.610Z,50.40
2022-08-22T17:02:44.659Z,50.30
2022-08-22T17:05:44.682Z,50.10
2022-08-22T17:08:44.639Z,50.10
2022-08-22T17:11:42.277Z,50.40
2022-08-22T17:14:41.754Z,49.80
2022-08-22T17:17:50.285Z,50.10
2022-08-22T17:20:45.904Z,50.60
2022-08-22T17:23:43.827Z,50.40
2022-08-22T17:26:46.339Z,50.50
2022-08-22T17:29:47.148Z,50.70
2022-08-22T17:32:41.967Z,51.10
2022-08-22T17:36:00.510Z,51.10
2022-08-22T17:39:04.820Z,51.10
2022-08-22T17:41:58.817Z,51.40
2022-08-22T17:44:51.589Z,52.30
2022-08-22T17:47:47.942Z,52.30
2022-08-22T17:50:43.891Z,52.60
2022-08-22T17:53:41.202Z,52.70
2022-08-22T17:56:34.307Z,52.70
2022-08-22T17:59:27.112Z,52.80
2022-08-22T18:02:22.277Z,52.90
2022-08-22T18:05:14.386Z,53.20
2022-08-22T18:08:08.891Z,53.30
2022-08-22T18:11:04.236Z,53.50
2022-08-22T18:13:58.787Z,53.80
2022-08-22T18:16:55.308Z,54.00
2022-08-22T18:19:47.025Z,54.40
2022-08-22T18:22:41.929Z,54.70
2022-08-22T18:25:38.033Z,55.20
2022-08-22T18:28:31.003Z,56.60
2022-08-22T18:31:35.218Z,56.10
2022-08-22T18:34:33.978Z,56.10
2022-08-22T18:37:57.004Z,56.20
2022-08-22T18:40:50.200Z,56.30
2022-08-22T18:43:41.494Z,56.60
2022-08-22T18:46:34.210Z,56.80
2022-08-22T18:49:41.852Z,57.40
2022-08-22T18:52:34.536Z,57.40
2022-08-22T18:55:45.001Z,59.00
2022-08-22T18:59:01.870Z,59.20
2022-08-22T19:02:05.773Z,60.70
2022-08-22T19:05:13.069Z,59.80
2022-08-22T19:08:17.614Z,60.20
2022-08-22T19:11:16.530Z,59.50
2022-08-22T19:14:21.795Z,59.70
2022-08-22T19:17:32.498Z,59.50
2022-08-22T19:20:41.101Z,59.80
2022-08-22T19:23:43.803Z,59.30
2022-08-22T19:26:34.018Z,59.00
2022-08-22T19:29:49.349Z,59.30
2022-08-22T19:32:59.482Z,60.40
2022-08-22T19:35:46.469Z,61.80
2022-08-22T19:38:55.742Z,62.90
2022-08-22T19:41:47.421Z,63.80
2022-08-22T19:44:40.675Z,64.50
2022-08-22T19:47:31.669Z,64.00
2022-08-22T19:50:31.275Z,63.20
2022-08-22T19:53:33.461Z,64.30
2022-08-22T19:56:32.724Z,64.40
2022-08-22T19:59:31.510Z,64.70
2022-08-22T20:02:31.869Z,65.30
2022-08-22T20:05:30.469Z,66.20
2022-08-22T20:08:31.183Z,66.80
2022-08-22T20:11:38.255Z,66.80
2022-08-22T20:14:30.685Z,67.00
2022-08-22T20:17:43.672Z,67.00
2022-08-22T20:20:37.531Z,67.40
2022-08-22T20:23:30.846Z,68.50
2022-08-22T20:26:18.286Z,69.20
2022-08-22T20:29:08.269Z,69.20
2022-08-22T20:31:58.740Z,69.40
2022-08-22T20:34:48.002Z,69.60
2022-08-22T20:38:05.367Z,70.50
2022-08-22T20:40:59.474Z,70.70
2022-08-22T20:43:53.077Z,70.90
2022-08-22T20:46:53.395Z,71.50
2022-08-22T20:49:47.491Z,71.50
2022-08-22T20:52:37.082Z,72.30
2022-08-22T20:55:31.942Z,72.30
2022-08-22T20:58:25.319Z,72.90
2022-08-22T21:01:15.350Z,73.10
2022-08-22T21:04:05.764Z,73.40
2022-08-22T21:07:01.001Z,73.90
2022-08-22T21:10:10.057Z,72.70
2022-08-22T21:13:03.875Z,73.70
2022-08-22T21:15:52.119Z,74.20
2022-08-22T21:18:41.129Z,74.60
2022-08-22T21:21:31.149Z,75.10
2022-08-22T21:24:18.278Z,75.70
2022-08-22T21:27:06.763Z,75.90
2022-08-22T21:29:53.763Z,76.50
2022-08-22T21:32:52.294Z,76.50
2022-08-22T21:35:42.262Z,76.80
2022-08-22T21:38:30.483Z,76.60
2022-08-22T21:41:26.991Z,77.00
2022-08-22T21:44:29.404Z,77.40
2022-08-22T21:47:30.753Z,78.60
2022-08-22T21:50:34.963Z,78.10
2022-08-22T21:53:28.943Z,78.10
2022-08-22T21:56:29.434Z,78.70
2022-08-22T21:59:50.798Z,79.10
2022-08-22T22:02:37.852Z,79.30
2022-08-22T22:05:26.750Z,79.70
2022-08-22T22:08:13.817Z,79.70
2022-08-22T22:11:03.478Z,80.10
2022-08-22T22:13:58.020Z,80.30
2022-08-22T22:16:44.817Z,80.60
2022-08-22T22:19:31.802Z,81.10
2022-08-22T22:22:19.369Z,81.50
2022-08-22T22:25:06.941Z,81.50
2022-08-22T22:28:16.878Z,81.80
2022-08-22T22:31:05.744Z,82.20
2022-08-22T22:33:52.680Z,82.50
2022-08-22T22:36:39.668Z,82.70
2022-08-22T22:39:27.183Z,83.00
2022-08-22T22:42:14.183Z,83.20
2022-08-22T22:45:01.587Z,83.50
2022-08-22T22:47:50.837Z,84.50
2022-08-22T22:50:40.970Z,83.80
2022-08-22T22:53:33.717Z,84.10
2022-08-22T22:56:28.086Z,84.40
2022-08-22T22:59:15.309Z,84.70
2022-08-22T23:02:06.764Z,85.20
2022-08-22T23:04:56.953Z,85.10
2022-08-22T23:07:43.902Z,85.50
2022-08-22T23:10:32.568Z,85.70
2022-08-22T23:13:19.676Z,86.00
2022-08-22T23:16:09.149Z,86.00
2022-08-22T23:18:56.735Z,86.20
2022-08-22T23:21:46.646Z,86.30
2022-08-22T23:24:35.576Z,86.70
2022-08-22T23:27:22.453Z,86.60
2022-08-22T23:30:10.613Z,86.90
2022-08-22T23:32:57.393Z,86.90
2022-08-22T23:35:44.523Z,87.00
2022-08-22T23:38:33.353Z,87.10
2022-08-22T23:41:22.135Z,87.20
2022-08-22T23:44:13.733Z,87.40
2022-08-22T23:47:01.305Z,87.50
2022-08-22T23:49:48.621Z,87.70
2022-08-22T23:52:35.527Z,87.70
2022-08-22T23:55:24.183Z,88.10
2022-08-22T23:58:11.070Z,88.40
